»·PEaware :: N223JX KCPM-KSAN

N223JX :: KCPM-KSAN

FLIGHT INFORMATION

Flight Status: Arrived
Operator: Privately registered:
United States
More flights under this callsign
Pilot: William N. (15320)
Aircraft: CESSNA 172 SKYHAWK
(C172)
More flights by this aircraft type
Origin: KCPM Compton/Woodley
United States
Destination: KSAN San Diego Intl-Lindbergh
United States
More flights between these airports :: More routes between these airports
Route: FERMY MZB
File this flight plan on PilotEdge
Remarks:
Altitude:
(Current/Filed)
2,500ft
Speed:
(Current/Filed)
115kts
Departed: 07-May-18 01:50 PM
Arrived: 07-May-18 02:41 PM
Distance/Time
Traveled:
88nm/0:51
Distance/Time
To Go:
Arrived

Flight Plot

Page will automatically refresh every two minutes.

Flight plan parsing failed; only flown route is shown


Map Options




Map Legend


Flown Route
Filed Route
Departure Airport
Arrival Airport
Navaid (VOR, NDB)
Fix

Horizontal Profiles

Position Reports

Time Latitude Longitude Heading Altitude Ground
Speed
07-May-18 13:48 33.889307 -118.238065 86 101ft 10kts
07-May-18 13:49 33.889677 -118.238168 268 101ft 10kts
07-May-18 13:50 33.890223 -118.255254 271 471ft 67kts
07-May-18 13:51 33.880870 -118.262017 150 1096ft 72kts
07-May-18 13:52 33.863685 -118.242742 156 1621ft 93kts
07-May-18 13:53 33.839325 -118.236834 191 2279ft 82kts
07-May-18 13:54 33.815060 -118.235619 166 2732ft 97kts
07-May-18 13:55 33.786107 -118.223516 157 2883ft 111kts
07-May-18 13:56 33.759395 -118.217597 187 3028ft 92kts
07-May-18 13:57 33.728689 -118.219498 166 2247ft 112kts
07-May-18 13:58 33.706784 -118.195914 137 2350ft 103kts
07-May-18 13:59 33.684974 -118.168806 137 2505ft 118kts
07-May-18 14:00 33.662132 -118.140366 137 2496ft 117kts
07-May-18 14:01 33.639694 -118.112626 139 2495ft 115kts
07-May-18 14:02 33.616777 -118.085476 139 2495ft 116kts
07-May-18 14:03 33.593940 -118.058301 139 2495ft 116kts
07-May-18 14:04 33.571073 -118.030747 139 2486ft 117kts
07-May-18 14:05 33.547636 -118.003472 140 2486ft 117kts
07-May-18 14:06 33.523952 -117.976420 140 2486ft 117kts
07-May-18 14:07 33.499969 -117.949942 142 2486ft 117kts
07-May-18 14:08 33.475683 -117.923864 142 2486ft 117kts
07-May-18 14:09 33.447002 -117.907162 155 2486ft 115kts
07-May-18 14:10 33.419897 -117.886529 149 2486ft 116kts
07-May-18 14:11 33.392986 -117.865320 152 2486ft 115kts
07-May-18 14:12 33.366043 -117.844122 148 2486ft 116kts
07-May-18 14:13 33.340299 -117.820657 145 2503ft 117kts
07-May-18 14:14 33.314657 -117.795433 143 2504ft 121kts
07-May-18 14:15 33.291532 -117.771828 143 2199ft 100kts
07-May-18 14:16 33.271174 -117.750657 141 1793ft 102kts
07-May-18 14:17 33.247115 -117.723581 138 1790ft 125kts
07-May-18 14:18 33.222222 -117.694022 137 1790ft 126kts
07-May-18 14:19 33.197998 -117.663655 135 1790ft 126kts
07-May-18 14:20 33.173936 -117.632777 137 1790ft 126kts
07-May-18 14:21 33.148853 -117.603573 139 1790ft 126kts
07-May-18 14:22 33.123003 -117.575167 140 1790ft 126kts
07-May-18 14:23 33.096851 -117.547168 141 1787ft 126kts
07-May-18 14:24 33.070714 -117.519519 142 1781ft 124kts
07-May-18 14:25 33.044803 -117.492295 142 1781ft 124kts
07-May-18 14:26 33.018801 -117.465037 142 1781ft 125kts
07-May-18 14:27 32.992669 -117.437694 142 1781ft 125kts
07-May-18 14:28 32.966579 -117.410435 142 1781ft 125kts
07-May-18 14:29 32.940435 -117.383155 141 1782ft 125kts
07-May-18 14:30 32.913996 -117.355604 140 1782ft 127kts
07-May-18 14:31 32.887828 -117.327886 141 1780ft 127kts
07-May-18 14:32 32.861987 -117.299063 133 1780ft 128kts
07-May-18 14:33 32.838932 -117.267106 132 1807ft 126kts
07-May-18 14:34 32.813808 -117.239130 153 1717ft 119kts
07-May-18 14:35 32.784626 -117.222828 161 1377ft 113kts
07-May-18 14:36 32.767960 -117.195152 102 1225ft 106kts
07-May-18 14:37 32.759735 -117.161503 109 1153ft 92kts
07-May-18 14:38 32.747527 -117.139135 183 1039ft 80kts
07-May-18 14:39 32.730706 -117.149309 226 817ft 68kts
07-May-18 14:40 32.728707 -117.169542 281 337ft 60kts
07-May-18 14:41 32.732744 -117.186265 284 17ft 32kts
07-May-18 14:42 32.733969 -117.188029 26 17ft 0kts
07-May-18 14:43 32.734139 -117.187806 66 17ft 9kts
07-May-18 14:44 32.732284 -117.179690 106 18ft 34kts
07-May-18 14:45 32.732449 -117.177392 195 26ft 1kts
07-May-18 14:46 32.732289 -117.177440 192 27ft 0kts

Navigation Log

Ident Type
Flight plan parsing failed, navigation log unavailable